createdAt,value
2017-09-12T00:00:07.191Z,78.66
2017-09-12T00:02:35.854Z,79.08
2017-09-12T00:05:04.191Z,78.52
2017-09-12T00:07:32.558Z,78.58
2017-09-12T00:10:00.899Z,78.53
2017-09-12T00:12:29.284Z,78.82
2017-09-12T00:14:57.611Z,78.50
2017-09-12T00:17:26.137Z,78.42
2017-09-12T00:19:54.498Z,78.39
2017-09-12T00:22:22.830Z,78.11
2017-09-12T00:24:51.515Z,78.54
2017-09-12T00:27:19.846Z,78.45
2017-09-12T00:29:48.211Z,78.16
2017-09-12T00:32:16.562Z,78.23
2017-09-12T00:34:44.898Z,78.14
2017-09-12T00:37:13.229Z,77.89
2017-09-12T00:39:41.787Z,77.60
2017-09-12T00:42:10.146Z,77.98
2017-09-12T00:44:38.643Z,78.02
2017-09-12T00:47:06.994Z,77.79
2017-09-12T00:49:35.331Z,78.12
2017-09-12T00:52:03.663Z,78.46
2017-09-12T00:54:31.990Z,78.19
2017-09-12T00:57:00.339Z,78.21
2017-09-12T00:59:28.706Z,78.52
2017-09-12T01:01:57.123Z,78.83
2017-09-12T01:04:25.470Z,78.55
2017-09-12T01:06:53.864Z,78.43
2017-09-12T01:09:22.252Z,77.72
2017-09-12T01:11:50.583Z,78.42
2017-09-12T01:14:18.915Z,78.16
2017-09-12T01:16:47.247Z,78.36
2017-09-12T01:19:15.631Z,78.54
2017-09-12T01:21:43.976Z,78.75
2017-09-12T01:24:12.362Z,78.89
2017-09-12T01:26:40.697Z,78.66
2017-09-12T01:29:09.034Z,79.15
2017-09-12T01:31:37.403Z,78.96
2017-09-12T01:34:05.759Z,79.19
2017-09-12T01:36:34.094Z,78.99
2017-09-12T01:39:02.427Z,79.36
2017-09-12T01:41:30.795Z,80.41
2017-09-12T01:43:59.131Z,79.96
2017-09-12T01:46:27.526Z,80.16
2017-09-12T01:48:55.842Z,80.21
2017-09-12T01:51:24.202Z,80.23
2017-09-12T01:53:52.546Z,80.17
2017-09-12T01:56:20.877Z,80.19
2017-09-12T01:58:49.345Z,80.26
2017-09-12T02:01:17.724Z,80.10
2017-09-12T02:03:46.058Z,80.03
2017-09-12T02:06:14.389Z,80.17
2017-09-12T02:08:42.722Z,79.91
2017-09-12T02:11:11.087Z,80.20
2017-09-12T02:13:39.472Z,80.14
2017-09-12T02:16:07.798Z,80.29
2017-09-12T02:18:36.146Z,81.71
2017-09-12T02:21:04.486Z,82.85
2017-09-12T02:23:32.822Z,83.66
2017-09-12T02:26:01.158Z,83.53
2017-09-12T02:28:29.558Z,84.04
2017-09-12T02:30:57.894Z,84.12
2017-09-12T02:33:26.846Z,84.04
2017-09-12T02:35:55.199Z,84.37
2017-09-12T02:38:23.540Z,84.27
2017-09-12T02:40:51.862Z,83.88
2017-09-12T02:43:20.203Z,83.96
2017-09-12T02:45:48.571Z,84.47
2017-09-12T02:48:16.908Z,84.15
2017-09-12T02:50:45.246Z,84.45
2017-09-12T02:53:13.578Z,84.74
2017-09-12T02:55:41.936Z,84.34
2017-09-12T02:58:10.318Z,84.05
2017-09-12T03:00:38.675Z,84.57
2017-09-12T03:03:07.011Z,84.22
2017-09-12T03:05:35.374Z,84.09
2017-09-12T03:08:03.712Z,83.78
2017-09-12T03:10:32.202Z,84.31
2017-09-12T03:13:00.554Z,85.22
2017-09-12T03:15:29.222Z,85.60
2017-09-12T03:17:57.574Z,85.44
2017-09-12T03:20:25.938Z,86.23
2017-09-12T03:22:54.274Z,85.44
2017-09-12T03:25:22.611Z,85.78
2017-09-12T03:27:50.945Z,86.29
2017-09-12T03:30:19.331Z,86.15
2017-09-12T03:32:47.663Z,85.46
2017-09-12T03:35:16.042Z,85.89
2017-09-12T03:37:44.383Z,85.30
2017-09-12T03:40:12.730Z,85.58
2017-09-12T03:42:41.098Z,85.75
2017-09-12T03:45:09.429Z,85.58
2017-09-12T03:47:37.762Z,85.37
2017-09-12T03:50:06.123Z,85.42
2017-09-12T03:52:34.462Z,86.20
2017-09-12T03:55:02.798Z,85.77
2017-09-12T03:57:31.134Z,85.41
2017-09-12T03:59:59.466Z,85.73
2017-09-12T04:02:27.803Z,85.84
2017-09-12T04:04:56.162Z,86.46
2017-09-12T04:07:24.686Z,87.28
2017-09-12T04:09:53.045Z,87.25
2017-09-12T04:12:21.378Z,87.02
2017-09-12T04:14:49.722Z,87.60
2017-09-12T04:17:18.075Z,86.55
2017-09-12T04:19:46.435Z,86.89
2017-09-12T04:22:14.766Z,86.63
2017-09-12T04:24:43.117Z,86.50
2017-09-12T04:27:11.465Z,86.63
2017-09-12T04:29:39.794Z,86.91
2017-09-12T04:32:08.163Z,86.82
2017-09-12T04:34:36.494Z,87.32
2017-09-12T04:37:04.827Z,87.65
2017-09-12T04:39:33.763Z,87.78
2017-09-12T04:42:02.126Z,87.79
2017-09-12T04:44:30.462Z,88.00
2017-09-12T04:46:58.806Z,88.06
2017-09-12T04:49:27.149Z,88.28
2017-09-12T04:51:55.509Z,87.53
2017-09-12T04:54:24.840Z,88.49
2017-09-12T04:56:53.345Z,87.50
2017-09-12T04:59:21.676Z,88.60
2017-09-12T05:01:50.000Z,88.35
2017-09-12T05:04:18.335Z,87.94
2017-09-12T05:06:46.697Z,88.86
2017-09-12T05:09:15.058Z,89.67
2017-09-12T05:11:43.414Z,89.02
2017-09-12T05:14:11.751Z,87.81
2017-09-12T05:16:40.078Z,88.65
2017-09-12T05:19:08.414Z,87.82
2017-09-12T05:21:36.774Z,88.02
2017-09-12T05:24:05.107Z,87.50
2017-09-12T05:26:33.471Z,87.85
2017-09-12T05:29:01.878Z,87.60
2017-09-12T05:31:30.238Z,87.96
2017-09-12T05:33:58.627Z,88.50
2017-09-12T05:36:26.966Z,88.39
2017-09-12T05:38:55.322Z,88.72
2017-09-12T05:41:23.670Z,88.10
2017-09-12T05:43:52.003Z,87.73
2017-09-12T05:46:20.422Z,88.54
2017-09-12T05:48:48.754Z,87.87
2017-09-12T05:51:17.927Z,87.64
2017-09-12T05:53:46.435Z,86.85
2017-09-12T05:56:14.768Z,87.53
2017-09-12T05:58:43.107Z,87.34
2017-09-12T06:01:11.449Z,87.18
2017-09-12T06:03:39.821Z,87.08
2017-09-12T06:06:08.163Z,87.18
2017-09-12T06:08:36.496Z,86.78
2017-09-12T06:11:04.832Z,86.33
2017-09-12T06:13:33.198Z,86.86
2017-09-12T06:16:01.748Z,86.68
2017-09-12T06:18:30.166Z,86.42
2017-09-12T06:20:58.525Z,86.27
2017-09-12T06:23:26.873Z,86.83
2017-09-12T06:25:55.200Z,86.36
2017-09-12T06:28:23.531Z,86.50
2017-09-12T06:30:51.863Z,87.23
2017-09-12T06:33:20.198Z,87.50
2017-09-12T06:35:48.548Z,86.68
2017-09-12T06:38:16.957Z,86.49
2017-09-12T06:40:45.341Z,86.02
2017-09-12T06:43:13.683Z,85.36
2017-09-12T06:45:42.036Z,86.44
2017-09-12T06:48:10.379Z,85.62
2017-09-12T06:50:38.715Z,86.54
2017-09-12T06:53:07.059Z,85.33
2017-09-12T06:55:35.407Z,85.06
2017-09-12T06:58:03.758Z,85.61
2017-09-12T07:00:32.111Z,86.10
2017-09-12T07:03:00.494Z,87.30
2017-09-12T07:05:28.824Z,87.29
2017-09-12T07:07:57.158Z,87.39
2017-09-12T07:10:25.494Z,87.34
2017-09-12T07:12:53.822Z,87.17
2017-09-12T07:15:22.154Z,86.71
2017-09-12T07:17:50.488Z,87.30
2017-09-12T07:20:18.865Z,86.99
2017-09-12T07:22:47.579Z,86.85
2017-09-12T07:25:15.917Z,85.47
2017-09-12T07:27:44.258Z,85.06
2017-09-12T07:30:12.594Z,84.98
2017-09-12T07:32:40.930Z,85.19
2017-09-12T07:35:09.339Z,85.24
2017-09-12T07:37:37.764Z,85.63
2017-09-12T07:40:06.091Z,86.11
2017-09-12T07:42:34.427Z,84.93
2017-09-12T07:45:02.859Z,85.17
2017-09-12T07:47:31.238Z,86.67
2017-09-12T07:49:59.598Z,85.13
2017-09-12T07:52:27.922Z,83.39
2017-09-12T07:54:56.265Z,84.04
2017-09-12T07:57:24.619Z,81.08
2017-09-12T07:59:52.955Z,80.12
2017-09-12T08:02:21.284Z,75.41
2017-09-12T08:04:49.612Z,76.26
2017-09-12T08:07:17.966Z,75.40
2017-09-12T08:09:46.298Z,75.16
2017-09-12T08:12:14.662Z,75.25
2017-09-12T08:14:43.052Z,78.97
2017-09-12T08:17:11.375Z,80.67
2017-09-12T08:19:39.850Z,79.33
2017-09-12T08:22:08.211Z,79.34
2017-09-12T08:24:36.546Z,78.23
2017-09-12T08:27:04.878Z,73.48
2017-09-12T08:29:33.298Z,70.16
2017-09-12T08:32:01.634Z,63.45
2017-09-12T08:34:30.015Z,62.41
2017-09-12T08:36:58.395Z,63.28
2017-09-12T08:39:26.726Z,62.28
2017-09-12T08:41:55.057Z,62.03
2017-09-12T08:44:23.406Z,65.34
2017-09-12T08:46:51.743Z,64.77
2017-09-12T08:49:20.091Z,63.29
2017-09-12T08:51:48.426Z,64.83
2017-09-12T08:54:16.758Z,67.48
2017-09-12T08:56:45.094Z,72.67
2017-09-12T08:59:13.647Z,75.85
2017-09-12T09:01:42.006Z,78.20
2017-09-12T09:04:10.326Z,76.84
2017-09-12T09:06:38.662Z,77.98
2017-09-12T09:09:07.230Z,73.14
2017-09-12T09:11:35.769Z,64.66
2017-09-12T09:14:04.169Z,62.47
2017-09-12T09:16:32.567Z,62.12
2017-09-12T09:19:00.899Z,62.96
2017-09-12T09:21:30.118Z,67.07
2017-09-12T09:23:58.452Z,69.61
2017-09-12T09:26:26.790Z,71.93
2017-09-12T09:28:55.122Z,70.68
2017-09-12T09:31:23.464Z,65.90
2017-09-12T09:33:51.793Z,60.93
2017-09-12T09:36:20.203Z,61.88
2017-09-12T09:38:48.541Z,62.04
2017-09-12T09:41:16.894Z,56.93
2017-09-12T09:43:45.225Z,55.11
2017-09-12T09:46:13.558Z,54.34
2017-09-12T09:48:41.894Z,54.14
2017-09-12T09:51:10.280Z,53.83
2017-09-12T09:53:38.734Z,53.60
2017-09-12T09:56:07.071Z,55.51
2017-09-12T09:58:35.416Z,58.30
2017-09-12T10:01:03.774Z,61.61
2017-09-12T10:03:32.131Z,57.05
2017-09-12T10:06:00.527Z,55.00
2017-09-12T10:08:28.883Z,52.31
2017-09-12T10:10:57.227Z,53.57
2017-09-12T10:13:25.566Z,56.22
2017-09-12T10:15:53.926Z,57.62
2017-09-12T10:18:22.260Z,55.94
2017-09-12T10:20:50.638Z,58.12
2017-09-12T10:23:18.995Z,61.30
2017-09-12T10:25:47.346Z,68.88
2017-09-12T10:28:15.734Z,70.08
2017-09-12T10:30:44.099Z,72.11
2017-09-12T10:33:12.462Z,74.14
2017-09-12T10:35:40.798Z,74.25
2017-09-12T10:38:09.157Z,75.56
2017-09-12T10:40:37.491Z,76.62
2017-09-12T10:43:05.826Z,74.95
2017-09-12T10:45:34.178Z,76.88
2017-09-12T10:48:02.655Z,75.83
2017-09-12T10:50:31.034Z,77.68
2017-09-12T10:52:59.391Z,77.80
2017-09-12T10:55:27.726Z,76.78
2017-09-12T10:57:56.075Z,75.45
2017-09-12T11:00:24.411Z,76.92
2017-09-12T11:02:52.770Z,77.57
2017-09-12T11:05:21.119Z,75.16
2017-09-12T11:07:49.450Z,73.88
2017-09-12T11:10:18.165Z,72.43
2017-09-12T11:12:46.544Z,67.17
2017-09-12T11:15:14.903Z,61.87
2017-09-12T11:17:43.267Z,56.38
2017-09-12T11:20:11.649Z,56.61
2017-09-12T11:22:40.238Z,58.80
2017-09-12T11:25:08.562Z,60.41
2017-09-12T11:27:36.943Z,58.52
2017-09-12T11:30:05.307Z,60.23
2017-09-12T11:32:33.648Z,64.17
2017-09-12T11:35:02.083Z,66.79
2017-09-12T11:37:30.455Z,66.73
2017-09-12T11:39:58.797Z,64.59
2017-09-12T11:42:27.163Z,61.21
2017-09-12T11:44:55.536Z,57.40
2017-09-12T11:47:23.877Z,56.10
2017-09-12T11:49:52.211Z,59.16
2017-09-12T11:52:20.604Z,64.25
2017-09-12T11:54:48.977Z,67.43
2017-09-12T11:57:17.330Z,70.18
2017-09-12T11:59:45.773Z,68.91
2017-09-12T12:02:15.318Z,69.71
2017-09-12T12:04:43.697Z,72.32
2017-09-12T12:07:12.074Z,67.33
2017-09-12T12:09:40.459Z,63.22
2017-09-12T12:12:08.967Z,61.72
2017-09-12T12:14:37.375Z,62.73
2017-09-12T12:17:05.713Z,61.57
2017-09-12T12:19:34.143Z,61.55
2017-09-12T12:22:02.472Z,65.67
2017-09-12T12:26:58.303Z,69.37
2017-09-12T12:29:26.633Z,66.21
2017-09-12T12:31:54.990Z,67.30
2017-09-12T12:34:23.322Z,67.89
2017-09-12T12:36:51.695Z,67.21
2017-09-12T12:39:20.076Z,67.17
2017-09-12T12:41:48.440Z,68.20
2017-09-12T12:44:16.783Z,67.65
2017-09-12T12:46:45.246Z,65.70
2017-09-12T12:49:13.583Z,64.69
2017-09-12T12:51:41.921Z,65.74
2017-09-12T12:54:10.358Z,66.93
2017-09-12T12:56:38.719Z,67.48
2017-09-12T12:59:07.053Z,71.03
2017-09-12T13:01:35.386Z,69.83
2017-09-12T13:04:03.765Z,74.91
2017-09-12T13:06:32.098Z,73.78
2017-09-12T13:09:00.523Z,76.85
2017-09-12T13:11:28.859Z,77.47
2017-09-12T13:13:57.839Z,77.70
2017-09-12T13:16:26.275Z,79.36
2017-09-12T13:18:54.605Z,79.59
2017-09-12T13:21:22.986Z,79.03
2017-09-12T13:23:51.337Z,80.82
2017-09-12T13:26:19.850Z,78.33
2017-09-12T13:28:48.177Z,79.79
2017-09-12T13:31:16.616Z,82.22
2017-09-12T13:33:44.975Z,81.36
2017-09-12T13:36:13.311Z,79.38
2017-09-12T13:38:41.649Z,76.11
2017-09-12T13:41:10.002Z,75.53
2017-09-12T13:43:38.361Z,78.16
2017-09-12T13:46:06.959Z,75.12
2017-09-12T13:48:35.374Z,74.16
2017-09-12T13:51:03.743Z,76.85
2017-09-12T13:53:32.583Z,76.53
2017-09-12T13:56:00.938Z,75.62
2017-09-12T13:58:29.335Z,77.48
2017-09-12T14:00:58.871Z,78.76
2017-09-12T14:03:27.811Z,77.51
2017-09-12T14:05:56.168Z,81.02
2017-09-12T14:08:24.520Z,81.75
2017-09-12T14:10:52.907Z,78.78
2017-09-12T14:13:23.138Z,80.15
2017-09-12T14:15:51.682Z,81.76
2017-09-12T14:18:22.402Z,77.61
2017-09-12T14:20:52.680Z,75.93
2017-09-12T14:23:27.395Z,75.92
2017-09-12T14:25:58.967Z,77.47
2017-09-12T14:28:27.294Z,76.74
2017-09-12T14:30:55.634Z,79.84
2017-09-12T14:33:23.989Z,77.35
2017-09-12T14:35:52.321Z,78.11
2017-09-12T14:38:22.674Z,78.41
2017-09-12T14:40:51.004Z,79.06
2017-09-12T14:43:19.578Z,80.82
2017-09-12T14:45:47.914Z,84.50
2017-09-12T14:48:16.248Z,83.63
2017-09-12T14:50:44.591Z,82.66
2017-09-12T14:53:13.028Z,82.84
2017-09-12T14:55:41.427Z,84.41
2017-09-12T14:58:09.890Z,83.58
2017-09-12T15:00:38.251Z,80.73
2017-09-12T15:03:06.647Z,81.12
2017-09-12T15:05:35.073Z,79.58
2017-09-12T15:08:04.372Z,80.27
2017-09-12T15:10:32.733Z,79.25
2017-09-12T15:13:01.091Z,80.48
2017-09-12T15:15:29.490Z,79.78
2017-09-12T15:17:57.823Z,80.83
2017-09-12T15:20:26.187Z,79.01
2017-09-12T15:22:54.510Z,80.31
2017-09-12T15:25:22.845Z,78.24
2017-09-12T15:27:51.206Z,78.90
2017-09-12T15:30:19.535Z,79.61
2017-09-12T15:32:47.870Z,76.89
2017-09-12T15:35:16.206Z,77.94
2017-09-12T15:37:44.542Z,79.28
2017-09-12T15:40:12.890Z,77.24
2017-09-12T15:42:41.210Z,78.08
2017-09-12T15:45:09.767Z,78.60
2017-09-12T15:47:38.091Z,78.03
2017-09-12T15:50:06.474Z,78.60
2017-09-12T15:52:34.810Z,77.25
2017-09-12T15:55:03.171Z,77.01
2017-09-12T15:57:31.493Z,78.32
2017-09-12T15:59:59.902Z,76.91
2017-09-12T16:02:28.226Z,77.00
2017-09-12T16:04:56.596Z,77.14
2017-09-12T16:07:25.251Z,76.42
2017-09-12T16:09:53.583Z,77.77
2017-09-12T16:12:21.943Z,77.02
2017-09-12T16:14:50.271Z,78.25
2017-09-12T16:17:18.661Z,78.59
2017-09-12T16:19:47.661Z,77.51
2017-09-12T16:22:16.035Z,77.58
2017-09-12T16:24:44.410Z,78.15
2017-09-12T16:27:13.071Z,78.78
2017-09-12T16:29:41.426Z,79.45
2017-09-12T16:32:09.897Z,79.29
2017-09-12T16:34:38.267Z,79.54
2017-09-12T16:37:06.607Z,80.51
2017-09-12T16:39:34.942Z,81.12
2017-09-12T16:42:03.331Z,80.92
2017-09-12T16:44:31.706Z,79.70
2017-09-12T16:47:00.337Z,81.87
2017-09-12T16:49:29.265Z,81.66
2017-09-12T16:51:57.767Z,81.16
2017-09-12T16:54:26.123Z,81.91
2017-09-12T16:56:54.456Z,82.67
2017-09-12T16:59:22.787Z,82.49
2017-09-12T17:01:51.114Z,82.00
2017-09-12T17:04:19.486Z,81.55
2017-09-12T17:06:47.835Z,82.74
2017-09-12T17:09:16.170Z,82.07
2017-09-12T17:11:44.517Z,83.59
2017-09-12T17:14:12.903Z,83.82
2017-09-12T17:16:41.281Z,82.95
2017-09-12T17:19:09.639Z,82.44
2017-09-12T17:21:37.979Z,82.64
2017-09-12T17:24:06.326Z,82.81
2017-09-12T17:26:34.710Z,83.57
2017-09-12T17:29:03.090Z,84.75
2017-09-12T17:31:31.436Z,83.68
2017-09-12T17:33:59.858Z,83.83
2017-09-12T17:36:28.244Z,84.23
2017-09-12T17:38:56.570Z,84.59
2017-09-12T17:41:25.041Z,84.41
2017-09-12T17:43:53.375Z,83.83
2017-09-12T17:46:21.723Z,84.79
2017-09-12T17:48:50.084Z,84.21
2017-09-12T17:51:18.419Z,84.72
2017-09-12T17:53:51.320Z,85.61
2017-09-12T17:56:20.002Z,86.06
2017-09-12T17:58:48.468Z,85.86
2017-09-12T18:01:16.814Z,86.51
2017-09-12T18:03:45.162Z,85.62
2017-09-12T18:06:13.490Z,85.80
2017-09-12T18:08:43.970Z,85.88
2017-09-12T18:11:12.444Z,86.04
2017-09-12T18:13:40.848Z,85.48
2017-09-12T18:16:09.174Z,84.79
2017-09-12T18:18:37.786Z,84.87
2017-09-12T18:21:06.139Z,84.69
2017-09-12T18:23:34.475Z,85.11
2017-09-12T18:26:02.840Z,84.53
2017-09-12T18:28:31.606Z,84.49
2017-09-12T18:30:59.991Z,84.63
2017-09-12T18:33:28.611Z,84.49
2017-09-12T18:35:57.093Z,84.25
2017-09-12T18:38:25.460Z,84.77
2017-09-12T18:40:53.808Z,84.41
2017-09-12T18:43:22.153Z,84.09
2017-09-12T18:45:51.047Z,84.17
2017-09-12T18:48:20.082Z,84.47
2017-09-12T18:50:48.453Z,84.45
2017-09-12T18:53:17.847Z,84.32
2017-09-12T18:55:46.457Z,84.21
2017-09-12T18:58:15.170Z,84.07
2017-09-12T19:00:43.507Z,84.26
2017-09-12T19:03:11.847Z,84.22
2017-09-12T19:05:40.371Z,84.68
2017-09-12T19:08:08.730Z,84.83
2017-09-12T19:10:37.843Z,85.31
2017-09-12T19:13:06.183Z,85.40
2017-09-12T19:15:34.799Z,85.47
2017-09-12T19:18:03.179Z,85.45
2017-09-12T19:20:31.535Z,85.99
2017-09-12T19:22:59.998Z,85.99
2017-09-12T19:25:28.328Z,86.56
2017-09-12T19:27:56.661Z,86.68
2017-09-12T19:30:25.030Z,87.02
2017-09-12T19:32:53.358Z,86.91
2017-09-12T19:35:21.686Z,87.02
2017-09-12T19:37:50.049Z,86.76
2017-09-12T19:40:18.401Z,86.60
2017-09-12T19:42:46.722Z,86.15
2017-09-12T19:45:15.051Z,86.34
2017-09-12T19:47:43.379Z,86.53
2017-09-12T19:50:11.738Z,86.03
2017-09-12T19:52:40.089Z,86.34
2017-09-12T19:55:08.439Z,88.04
2017-09-12T19:57:36.810Z,88.48
2017-09-12T20:00:05.143Z,88.60
2017-09-12T20:02:33.470Z,88.99
2017-09-12T20:05:01.979Z,89.05
2017-09-12T20:07:30.367Z,90.47
2017-09-12T20:09:58.701Z,89.32
2017-09-12T20:12:27.030Z,89.59
2017-09-12T20:14:55.360Z,89.87
2017-09-12T20:17:23.685Z,90.40
2017-09-12T20:19:52.155Z,90.14
2017-09-12T20:22:20.495Z,90.64
2017-09-12T20:24:48.819Z,90.42
2017-09-12T20:27:17.158Z,90.92
2017-09-12T20:29:45.483Z,90.40
2017-09-12T20:32:14.012Z,90.76
2017-09-12T20:34:42.335Z,90.40
2017-09-12T20:37:10.667Z,90.38
2017-09-12T20:39:39.000Z,90.08
2017-09-12T20:42:07.661Z,89.85
2017-09-12T20:44:35.987Z,89.79
2017-09-12T20:47:04.319Z,89.51
2017-09-12T20:49:32.662Z,89.47
2017-09-12T20:52:00.996Z,89.48
2017-09-12T20:54:29.327Z,89.40
2017-09-12T20:56:57.662Z,89.09
2017-09-12T20:59:25.999Z,89.55
2017-09-12T21:01:54.335Z,89.54
2017-09-12T21:04:22.671Z,89.63
2017-09-12T21:06:50.990Z,90.07
2017-09-12T21:09:19.341Z,89.52
2017-09-12T21:11:47.667Z,89.48
2017-09-12T21:14:16.024Z,89.08
2017-09-12T21:16:44.383Z,89.29
2017-09-12T21:19:12.703Z,89.38
2017-09-12T21:21:41.060Z,89.07
2017-09-12T21:24:09.386Z,88.97
2017-09-12T21:26:37.706Z,89.33
2017-09-12T21:29:06.040Z,89.38
2017-09-12T21:31:34.433Z,89.33
2017-09-12T21:34:02.758Z,89.68
2017-09-12T21:36:31.074Z,89.49
2017-09-12T21:38:59.406Z,89.48
2017-09-12T21:41:27.731Z,89.08
2017-09-12T21:43:56.059Z,89.01
2017-09-12T21:46:24.386Z,88.92
2017-09-12T21:48:52.714Z,88.94
2017-09-12T21:51:21.047Z,88.91
2017-09-12T21:53:49.403Z,89.52
2017-09-12T21:56:17.730Z,89.11
2017-09-12T21:58:46.115Z,89.02
2017-09-12T22:01:14.440Z,89.25
2017-09-12T22:03:42.759Z,89.18
2017-09-12T22:06:11.096Z,89.22
2017-09-12T22:08:39.445Z,89.16
2017-09-12T22:11:07.774Z,89.34
2017-09-12T22:13:36.115Z,88.74
2017-09-12T22:16:04.446Z,88.49
2017-09-12T22:18:32.783Z,88.53
2017-09-12T22:21:01.114Z,88.82
2017-09-12T22:23:29.437Z,88.76
2017-09-12T22:25:57.822Z,88.51
2017-09-12T22:28:26.152Z,88.50
2017-09-12T22:30:54.503Z,88.24
2017-09-12T22:33:22.830Z,88.10
2017-09-12T22:35:51.167Z,87.99
2017-09-12T22:38:19.520Z,88.27
2017-09-12T22:40:47.843Z,88.19
2017-09-12T22:43:16.179Z,87.74
2017-09-12T22:45:44.526Z,87.54
2017-09-12T22:48:12.939Z,87.65
2017-09-12T22:50:41.294Z,87.75
2017-09-12T22:53:09.930Z,87.58
2017-09-12T22:55:38.278Z,88.09
2017-09-12T22:58:06.654Z,87.77
2017-09-12T23:00:34.990Z,88.19
2017-09-12T23:03:03.334Z,88.26
2017-09-12T23:05:31.789Z,88.07
2017-09-12T23:08:00.147Z,87.94
2017-09-12T23:10:28.578Z,87.62
2017-09-12T23:12:56.966Z,87.71
2017-09-12T23:15:25.354Z,87.29
2017-09-12T23:17:53.750Z,86.97
2017-09-12T23:20:22.078Z,87.09
2017-09-12T23:22:50.415Z,87.08
2017-09-12T23:25:18.818Z,87.37
2017-09-12T23:27:47.157Z,87.70
2017-09-12T23:30:15.606Z,87.70
2017-09-12T23:32:43.946Z,87.46
2017-09-12T23:35:12.282Z,87.25
2017-09-12T23:37:40.630Z,87.07
2017-09-12T23:40:08.996Z,86.87
2017-09-12T23:42:37.351Z,86.62
2017-09-12T23:45:05.707Z,86.49
2017-09-12T23:47:34.059Z,86.29
2017-09-12T23:50:02.394Z,86.18
2017-09-12T23:52:30.818Z,86.30
2017-09-12T23:54:59.326Z,85.91
2017-09-12T23:57:27.698Z,85.72
2017-09-12T23:59:56.035Z,85.39
